createdAt,value
2016-09-29T00:00:17.399Z,1161.74
2016-09-29T00:01:17.409Z,1161.79
2016-09-29T00:02:17.386Z,1161.75
2016-09-29T00:03:17.405Z,1161.81
2016-09-29T00:04:17.413Z,1161.71
2016-09-29T00:05:17.422Z,1161.76
2016-09-29T00:06:17.385Z,1161.78
2016-09-29T00:07:17.393Z,1161.79
2016-09-29T00:08:17.417Z,1161.76
2016-09-29T00:09:17.394Z,1161.8
2016-09-29T00:10:17.429Z,1161.83
2016-09-29T00:11:17.400Z,1161.84
2016-09-29T00:12:17.398Z,1161.83
2016-09-29T00:13:17.412Z,1161.85
2016-09-29T00:14:17.403Z,1161.85
2016-09-29T00:15:17.429Z,1161.84
2016-09-29T00:16:17.414Z,1161.88
2016-09-29T00:17:17.433Z,1161.81
2016-09-29T00:18:17.404Z,1161.8
2016-09-29T00:19:17.436Z,1161.77
2016-09-29T00:20:17.426Z,1161.74
2016-09-29T00:21:17.410Z,1161.71
2016-09-29T00:22:17.445Z,1161.76
2016-09-29T00:23:17.411Z,1161.67
2016-09-29T00:24:17.413Z,1161.7
2016-09-29T00:25:17.408Z,1161.67
2016-09-29T00:26:17.426Z,1161.65
2016-09-29T00:27:17.403Z,1161.6
2016-09-29T00:28:17.424Z,1161.68
2016-09-29T00:29:17.404Z,1161.59
2016-09-29T00:30:17.411Z,1161.49
2016-09-29T00:31:17.416Z,1161.57
2016-09-29T00:32:17.426Z,1161.54
2016-09-29T00:33:17.408Z,1161.56
2016-09-29T00:34:17.413Z,1161.61
2016-09-29T00:35:17.420Z,1161.58
2016-09-29T00:36:17.442Z,1161.53
2016-09-29T00:37:17.420Z,1161.58
2016-09-29T00:38:17.429Z,1161.55
2016-09-29T00:39:17.421Z,1161.53
2016-09-29T00:40:17.427Z,1161.53
2016-09-29T00:41:17.442Z,1161.53
2016-09-29T00:42:17.427Z,1161.57
2016-09-29T00:43:17.516Z,1161.55
2016-09-29T00:44:17.422Z,1161.66
2016-09-29T00:45:17.448Z,1161.77
2016-09-29T00:46:17.454Z,1161.85
2016-09-29T00:47:17.426Z,1161.94
2016-09-29T00:48:17.448Z,1162.04
2016-09-29T00:49:17.451Z,1162.13
2016-09-29T00:50:17.461Z,1162.21
2016-09-29T00:51:17.471Z,1162.3
2016-09-29T00:52:17.471Z,1162.44
2016-09-29T00:53:17.433Z,1162.53
2016-09-29T00:54:17.440Z,1162.57
2016-09-29T00:55:17.448Z,1162.68
2016-09-29T00:56:17.457Z,1162.8
2016-09-29T00:57:17.444Z,1162.87
2016-09-29T00:58:17.438Z,1162.95
2016-09-29T00:59:17.445Z,1163.03
2016-09-29T01:00:17.436Z,1163.13
2016-09-29T01:01:17.454Z,1163.16
2016-09-29T01:02:17.435Z,1163.32
2016-09-29T01:03:17.452Z,1163.42
2016-09-29T01:04:17.447Z,1163.51
2016-09-29T01:05:17.450Z,1163.54
2016-09-29T01:06:17.472Z,1163.56
2016-09-29T01:07:17.480Z,1163.57
2016-09-29T01:08:17.459Z,1163.6
2016-09-29T01:09:17.451Z,1163.58
2016-09-29T01:10:17.457Z,1163.55
2016-09-29T01:11:17.489Z,1163.63
2016-09-29T01:12:17.461Z,1163.67
2016-09-29T01:13:17.461Z,1163.64
2016-09-29T01:14:17.450Z,1163.74
2016-09-29T01:15:17.468Z,1163.75
2016-09-29T01:16:17.475Z,1163.84
2016-09-29T01:17:17.470Z,1163.8
2016-09-29T01:18:17.458Z,1163.85
2016-09-29T01:19:17.460Z,1163.91
2016-09-29T01:20:17.468Z,1163.89
2016-09-29T01:21:17.483Z,1163.88
2016-09-29T01:22:17.466Z,1163.85
2016-09-29T01:23:17.483Z,1163.86
2016-09-29T01:24:17.478Z,1163.95
2016-09-29T01:25:17.473Z,1163.99
2016-09-29T01:26:17.483Z,1164.03
2016-09-29T01:27:17.472Z,1164
2016-09-29T01:28:17.462Z,1164.06
2016-09-29T01:29:17.464Z,1164.09
2016-09-29T01:30:17.472Z,1164.04
2016-09-29T01:31:17.495Z,1164.03
2016-09-29T01:32:17.490Z,1163.99
2016-09-29T01:33:17.477Z,1164.01
2016-09-29T01:34:17.484Z,1164.06
2016-09-29T01:35:17.480Z,1164.13
2016-09-29T01:36:17.493Z,1164.14
2016-09-29T01:37:17.479Z,1164.12
2016-09-29T01:38:17.485Z,1164.2
2016-09-29T01:39:17.481Z,1164.2
2016-09-29T01:40:17.481Z,1164.18
2016-09-29T01:41:17.504Z,1164.18
2016-09-29T01:42:17.496Z,1164.22
2016-09-29T01:43:17.487Z,1164.2
2016-09-29T01:44:17.494Z,1164.18
2016-09-29T01:45:17.491Z,1164.22
2016-09-29T01:46:17.497Z,1164.23
2016-09-29T01:47:17.520Z,1164.19
2016-09-29T01:48:17.489Z,1164.19
2016-09-29T01:49:17.503Z,1164.23
2016-09-29T01:50:17.487Z,1164.21
2016-09-29T01:51:17.506Z,1164.27
2016-09-29T01:52:17.499Z,1164.23
2016-09-29T01:53:17.490Z,1164.22
2016-09-29T01:54:17.493Z,1164.26
2016-09-29T01:55:17.501Z,1164.25
2016-09-29T01:56:17.517Z,1164.32
2016-09-29T01:57:17.510Z,1164.25
2016-09-29T01:58:17.500Z,1164.22
2016-09-29T01:59:17.495Z,1164.21
2016-09-29T02:00:17.522Z,1164.19
2016-09-29T02:01:17.518Z,1164.06
2016-09-29T02:02:17.503Z,1164.1
2016-09-29T02:03:17.525Z,1164.04
2016-09-29T02:04:17.511Z,1163.96
2016-09-29T02:05:17.519Z,1163.93
2016-09-29T02:06:17.527Z,1163.92
2016-09-29T02:07:17.516Z,1163.95
2016-09-29T02:08:17.507Z,1163.91
2016-09-29T02:09:17.524Z,1163.88
2016-09-29T02:10:17.519Z,1163.88
2016-09-29T02:11:17.521Z,1163.96
2016-09-29T02:12:17.514Z,1163.84
2016-09-29T02:13:17.522Z,1163.81
2016-09-29T02:14:17.503Z,1163.76
2016-09-29T02:15:17.524Z,1163.73
2016-09-29T02:16:17.535Z,1163.71
2016-09-29T02:17:17.533Z,1163.67
2016-09-29T02:18:17.538Z,1163.67
2016-09-29T02:19:17.515Z,1163.62
2016-09-29T02:20:17.531Z,1163.66
2016-09-29T02:21:17.547Z,1163.52
2016-09-29T02:22:17.541Z,1163.57
2016-09-29T02:23:17.527Z,1163.49
2016-09-29T02:24:17.550Z,1163.43
2016-09-29T02:25:17.529Z,1163.41
2016-09-29T02:26:17.536Z,1163.37
2016-09-29T02:27:17.527Z,1163.38
2016-09-29T02:28:17.519Z,1163.37
2016-09-29T02:29:17.528Z,1163.26
2016-09-29T02:30:17.518Z,1163.34
2016-09-29T02:31:17.950Z,1163.28
2016-09-29T02:32:17.531Z,1163.25
2016-09-29T02:33:17.521Z,1163.3
2016-09-29T02:34:17.527Z,1163.24
2016-09-29T02:35:17.543Z,1163.24
2016-09-29T02:36:17.554Z,1163.26
2016-09-29T02:37:17.532Z,1163.18
2016-09-29T02:38:17.524Z,1163.19
2016-09-29T02:39:17.531Z,1163.18
2016-09-29T02:40:17.542Z,1163.22
2016-09-29T02:41:17.575Z,1163.24
2016-09-29T02:42:17.568Z,1163.25
2016-09-29T02:43:17.530Z,1163.28
2016-09-29T02:44:17.536Z,1163.15
2016-09-29T02:45:17.556Z,1163.14
2016-09-29T02:46:17.551Z,1163.12
2016-09-29T02:47:17.538Z,1163.11
2016-09-29T02:48:17.545Z,1163.11
2016-09-29T02:49:17.538Z,1163.08
2016-09-29T02:50:17.544Z,1162.98
2016-09-29T02:51:17.560Z,1162.91
2016-09-29T02:52:17.555Z,1162.82
2016-09-29T02:53:17.538Z,1162.79
2016-09-29T02:54:17.573Z,1162.75
2016-09-29T02:55:17.554Z,1162.78
2016-09-29T02:56:17.573Z,1162.8
2016-09-29T02:57:17.579Z,1162.72
2016-09-29T02:58:17.554Z,1162.74
2016-09-29T02:59:17.561Z,1162.62
2016-09-29T03:00:17.554Z,1162.64
2016-09-29T03:01:17.557Z,1162.6
2016-09-29T03:02:17.571Z,1162.6
2016-09-29T03:03:17.560Z,1162.57
2016-09-29T03:04:17.552Z,1162.56
2016-09-29T03:05:17.559Z,1162.5
2016-09-29T03:06:17.572Z,1162.49
2016-09-29T03:07:17.583Z,1162.55
2016-09-29T03:08:17.563Z,1162.55
2016-09-29T03:09:17.558Z,1162.52
2016-09-29T03:10:17.562Z,1162.41
2016-09-29T03:11:17.553Z,1162.34
2016-09-29T03:12:17.604Z,1162.38
2016-09-29T03:13:17.566Z,1162.28
2016-09-29T03:14:17.569Z,1162.3
2016-09-29T03:15:17.579Z,1162.25
2016-09-29T03:16:17.572Z,1162.27
2016-09-29T03:17:17.588Z,1162.29
2016-09-29T03:18:17.566Z,1162.13
2016-09-29T03:19:17.583Z,1162.26
2016-09-29T03:20:17.569Z,1162.17
2016-09-29T03:21:17.589Z,1162.04
2016-09-29T03:22:17.601Z,1162.09
2016-09-29T03:23:17.575Z,1162.07
2016-09-29T03:24:17.583Z,1162.05
2016-09-29T03:25:17.572Z,1162.09
2016-09-29T03:26:18.426Z,1161.95
2016-09-29T03:27:17.601Z,1161.97
2016-09-29T03:28:17.577Z,1162
2016-09-29T03:29:17.581Z,1161.92
2016-09-29T03:30:17.594Z,1161.91
2016-09-29T03:31:17.591Z,1161.93
2016-09-29T03:32:17.607Z,1161.91
2016-09-29T03:33:17.593Z,1161.86
2016-09-29T03:34:17.601Z,1161.85
2016-09-29T03:35:17.595Z,1161.88
2016-09-29T03:36:17.611Z,1161.85
2016-09-29T03:37:17.608Z,1161.85
2016-09-29T03:38:17.591Z,1161.76
2016-09-29T03:39:17.597Z,1161.68
2016-09-29T03:40:17.596Z,1161.7
2016-09-29T03:41:17.604Z,1161.64
2016-09-29T03:42:18.560Z,1161.59
2016-09-29T03:43:17.599Z,1161.56
2016-09-29T03:44:17.593Z,1161.56
2016-09-29T03:45:17.588Z,1161.5
2016-09-29T03:46:17.597Z,1161.4
2016-09-29T03:47:17.596Z,1161.47
2016-09-29T03:48:17.605Z,1161.35
2016-09-29T03:49:17.601Z,1161.39
2016-09-29T03:50:17.604Z,1161.32
2016-09-29T03:51:17.615Z,1161.3
2016-09-29T03:52:17.603Z,1161.28
2016-09-29T03:53:17.613Z,1161.16
2016-09-29T03:54:17.618Z,1161.21
2016-09-29T03:55:17.621Z,1161.17
2016-09-29T03:56:17.661Z,1161.13
2016-09-29T03:57:17.631Z,1161.07
2016-09-29T03:58:17.614Z,1161.07
2016-09-29T03:59:17.617Z,1161.02
2016-09-29T04:00:17.612Z,1160.91
2016-09-29T04:01:17.613Z,1160.9
2016-09-29T04:02:17.638Z,1160.84
2016-09-29T04:03:17.627Z,1160.76
2016-09-29T04:04:17.604Z,1160.82
2016-09-29T04:05:17.611Z,1160.73
2016-09-29T04:06:17.616Z,1160.67
2016-09-29T04:07:17.629Z,1160.67
2016-09-29T04:08:17.631Z,1160.62
2016-09-29T04:09:17.628Z,1160.61
2016-09-29T04:10:17.627Z,1160.54
2016-09-29T04:11:17.635Z,1160.47
2016-09-29T04:12:17.627Z,1160.46
2016-09-29T04:13:17.621Z,1160.31
2016-09-29T04:14:17.627Z,1160.35
2016-09-29T04:15:17.631Z,1160.28
2016-09-29T04:16:17.626Z,1160.29
2016-09-29T04:17:17.620Z,1160.18
2016-09-29T04:18:17.636Z,1160.18
2016-09-29T04:19:17.641Z,1160.15
2016-09-29T04:20:17.647Z,1160.03
2016-09-29T04:21:17.637Z,1159.97
2016-09-29T04:22:17.645Z,1159.97
2016-09-29T04:23:17.637Z,1159.96
2016-09-29T04:24:17.633Z,1160
2016-09-29T04:25:17.645Z,1159.97
2016-09-29T04:26:17.707Z,1160
2016-09-29T04:27:17.634Z,1159.96
2016-09-29T04:28:17.661Z,1159.87
2016-09-29T04:29:17.648Z,1159.96
2016-09-29T04:30:17.637Z,1159.88
2016-09-29T04:31:17.640Z,1159.91
2016-09-29T04:32:17.640Z,1159.94
2016-09-29T04:33:17.641Z,1159.96
2016-09-29T04:34:17.653Z,1159.91
2016-09-29T04:35:17.644Z,1159.86
2016-09-29T04:36:17.663Z,1159.88
2016-09-29T04:37:17.657Z,1159.88
2016-09-29T04:38:17.662Z,1159.93
2016-09-29T04:39:17.655Z,1159.99
2016-09-29T04:40:17.653Z,1159.94
2016-09-29T04:41:17.652Z,1159.88
2016-09-29T04:42:17.655Z,1159.85
2016-09-29T04:43:17.657Z,1159.85
2016-09-29T04:44:17.666Z,1159.83
2016-09-29T04:45:17.652Z,1159.73
2016-09-29T04:46:17.655Z,1159.68
2016-09-29T04:47:17.648Z,1159.6
2016-09-29T04:48:17.650Z,1159.55
2016-09-29T04:49:17.649Z,1159.52
2016-09-29T04:50:17.659Z,1159.5
2016-09-29T04:51:17.663Z,1159.42
2016-09-29T04:52:17.663Z,1159.43
2016-09-29T04:53:17.668Z,1159.34
2016-09-29T04:54:17.659Z,1159.31
2016-09-29T04:55:17.663Z,1159.26
2016-09-29T04:56:17.663Z,1159.1
2016-09-29T04:57:17.655Z,1159.1
2016-09-29T04:58:17.658Z,1159.13
2016-09-29T04:59:17.654Z,1159.08
2016-09-29T05:00:17.662Z,1159.03
2016-09-29T05:01:17.669Z,1158.95
2016-09-29T05:02:17.671Z,1158.86
2016-09-29T05:03:17.667Z,1158.76
2016-09-29T05:04:17.676Z,1158.69
2016-09-29T05:05:17.665Z,1158.6
2016-09-29T05:06:17.664Z,1158.5
2016-09-29T05:07:17.668Z,1158.36
2016-09-29T05:08:17.668Z,1158.29
2016-09-29T05:09:17.671Z,1158.29
2016-09-29T05:10:17.677Z,1158.16
2016-09-29T05:11:17.679Z,1158.09
2016-09-29T05:12:17.687Z,1158.05
2016-09-29T05:13:17.692Z,1157.95
2016-09-29T05:14:17.680Z,1157.88
2016-09-29T05:15:17.684Z,1157.96
2016-09-29T05:16:17.698Z,1157.85
2016-09-29T05:17:17.703Z,1157.8
2016-09-29T05:18:17.673Z,1157.77
2016-09-29T05:19:17.681Z,1157.76
2016-09-29T05:20:17.712Z,1157.71
2016-09-29T05:21:17.693Z,1157.79
2016-09-29T05:22:17.699Z,1157.68
2016-09-29T05:23:17.681Z,1157.77
2016-09-29T05:24:18.385Z,1157.74
2016-09-29T05:25:17.702Z,1157.58
2016-09-29T05:26:17.696Z,1157.49
2016-09-29T05:27:17.699Z,1157.41
2016-09-29T05:28:17.839Z,1157.3
2016-09-29T05:29:17.705Z,1157.08
2016-09-29T05:30:17.708Z,1157.07
2016-09-29T05:31:17.711Z,1156.91
2016-09-29T05:32:17.702Z,1156.76
2016-09-29T05:33:17.706Z,1156.6
2016-09-29T05:34:17.721Z,1156.64
2016-09-29T05:35:17.721Z,1156.46
2016-09-29T05:36:17.692Z,1156.57
2016-09-29T05:37:17.699Z,1156.55
2016-09-29T05:38:17.704Z,1156.75
2016-09-29T05:39:17.698Z,1156.82
2016-09-29T05:40:17.700Z,1156.87
2016-09-29T05:41:17.726Z,1156.88
2016-09-29T05:42:17.708Z,1156.95
2016-09-29T05:43:17.707Z,1157.06
2016-09-29T05:44:17.712Z,1157.13
2016-09-29T05:45:17.764Z,1157.15
2016-09-29T05:46:17.710Z,1157.29
2016-09-29T05:47:17.706Z,1157.39
2016-09-29T05:48:17.711Z,1157.44
2016-09-29T05:49:17.711Z,1157.59
2016-09-29T05:50:17.714Z,1157.7
2016-09-29T05:51:17.713Z,1157.68
2016-09-29T05:52:17.706Z,1157.78
2016-09-29T05:53:17.723Z,1157.74
2016-09-29T05:54:17.719Z,1157.82
2016-09-29T05:55:17.713Z,1157.85
2016-09-29T05:56:17.704Z,1157.79
2016-09-29T05:57:17.725Z,1157.63
2016-09-29T05:58:17.746Z,1157.73
2016-09-29T05:59:17.728Z,1157.65
2016-09-29T06:00:17.723Z,1157.64
2016-09-29T06:01:17.751Z,1157.76
2016-09-29T06:02:17.726Z,1157.76
2016-09-29T06:03:17.723Z,1157.84
2016-09-29T06:04:17.742Z,1157.79
2016-09-29T06:05:17.715Z,1157.88
2016-09-29T06:06:17.738Z,1157.95
2016-09-29T06:07:17.735Z,1158.01
2016-09-29T06:08:17.759Z,1158.04
2016-09-29T06:09:17.735Z,1158.23
2016-09-29T06:10:17.750Z,1158.35
2016-09-29T06:11:17.730Z,1158.42
2016-09-29T06:12:17.734Z,1158.52
2016-09-29T06:13:17.734Z,1158.47
2016-09-29T06:14:17.747Z,1158.45
2016-09-29T06:15:17.761Z,1158.48
2016-09-29T06:16:17.748Z,1158.47
2016-09-29T06:17:17.745Z,1158.38
2016-09-29T06:18:17.747Z,1158.45
2016-09-29T06:19:17.758Z,1158.4
2016-09-29T06:20:17.749Z,1158.38
2016-09-29T06:21:17.771Z,1158.53
2016-09-29T06:22:17.766Z,1158.58
2016-09-29T06:23:17.745Z,1158.67
2016-09-29T06:24:17.756Z,1158.78
2016-09-29T06:25:17.751Z,1158.8
2016-09-29T06:26:17.739Z,1158.96
2016-09-29T06:27:17.744Z,1158.96
2016-09-29T06:28:17.737Z,1159.07
2016-09-29T06:29:17.751Z,1159.11
2016-09-29T06:30:17.739Z,1159.11
2016-09-29T06:31:17.745Z,1159.09
2016-09-29T06:32:17.751Z,1159.14
2016-09-29T06:33:17.755Z,1159.07
2016-09-29T06:34:17.768Z,1159.09
2016-09-29T06:35:17.752Z,1159.16
2016-09-29T06:36:17.750Z,1159.15
2016-09-29T06:37:17.757Z,1159.18
2016-09-29T06:38:17.752Z,1159.17
2016-09-29T06:39:17.757Z,1159.26
2016-09-29T06:40:17.758Z,1159.3
2016-09-29T06:41:17.754Z,1159.31
2016-09-29T06:42:17.771Z,1159.37
2016-09-29T06:43:17.753Z,1159.37
2016-09-29T06:44:17.760Z,1159.39
2016-09-29T06:45:17.767Z,1159.45
2016-09-29T06:46:17.786Z,1159.47
2016-09-29T06:47:17.764Z,1159.5
2016-09-29T06:48:17.761Z,1159.72
2016-09-29T06:49:17.761Z,1159.73
2016-09-29T06:50:17.771Z,1159.78
2016-09-29T06:51:17.777Z,1159.8
2016-09-29T06:52:17.777Z,1159.79
2016-09-29T06:53:17.774Z,1159.84
2016-09-29T06:54:17.774Z,1159.9
2016-09-29T06:55:17.778Z,1159.85
2016-09-29T06:56:17.771Z,1159.93
2016-09-29T06:57:17.770Z,1159.99
2016-09-29T06:58:17.768Z,1159.98
2016-09-29T06:59:17.773Z,1160.1
2016-09-29T07:00:17.804Z,1160.2
2016-09-29T07:01:17.795Z,1160.31
2016-09-29T07:02:17.772Z,1160.46
2016-09-29T07:03:17.772Z,1160.64
2016-09-29T07:04:17.790Z,1160.75
2016-09-29T07:05:17.772Z,1160.88
2016-09-29T07:06:17.781Z,1160.97
2016-09-29T07:07:17.778Z,1160.91
2016-09-29T07:08:17.799Z,1160.78
2016-09-29T07:09:17.792Z,1160.67
2016-09-29T07:10:17.799Z,1160.52
2016-09-29T07:11:17.775Z,1160.47
2016-09-29T07:12:17.787Z,1160.35
2016-09-29T07:13:17.797Z,1160.27
2016-09-29T07:14:17.789Z,1160.17
2016-09-29T07:15:17.779Z,1159.97
2016-09-29T07:16:17.798Z,1159.85
2016-09-29T07:17:17.798Z,1159.8
2016-09-29T07:18:17.788Z,1159.57
2016-09-29T07:19:17.800Z,1159.45
2016-09-29T07:20:17.796Z,1159.41
2016-09-29T07:21:17.816Z,1159.26
2016-09-29T07:22:17.790Z,1159.29
2016-09-29T07:23:17.798Z,1159.27
2016-09-29T07:24:17.819Z,1159.25
2016-09-29T07:25:17.800Z,1159.19
2016-09-29T07:26:17.796Z,1159.21
2016-09-29T07:27:17.806Z,1159.14
2016-09-29T07:28:17.794Z,1159.15
2016-09-29T07:29:17.806Z,1159.13
2016-09-29T07:30:17.806Z,1159.19
2016-09-29T07:31:17.812Z,1159.29
2016-09-29T07:32:17.809Z,1159.51
2016-09-29T07:33:17.815Z,1159.71
2016-09-29T07:34:17.820Z,1159.82
2016-09-29T07:35:17.830Z,1159.92
2016-09-29T07:36:17.829Z,1159.97
2016-09-29T07:37:17.824Z,1160.09
2016-09-29T07:38:17.827Z,1160.11
2016-09-29T07:39:17.818Z,1160.05
2016-09-29T07:40:17.822Z,1160.11
2016-09-29T07:41:17.848Z,1159.99
2016-09-29T07:42:17.813Z,1159.92
2016-09-29T07:43:17.830Z,1159.86
2016-09-29T07:44:17.811Z,1159.81
2016-09-29T07:45:17.827Z,1159.7
2016-09-29T07:46:17.887Z,1159.65
2016-09-29T07:47:17.816Z,1159.56
2016-09-29T07:48:17.831Z,1159.5
2016-09-29T07:49:17.832Z,1159.37
2016-09-29T07:50:17.838Z,1159.22
2016-09-29T07:51:17.844Z,1159.06
2016-09-29T07:52:17.848Z,1158.93
2016-09-29T07:53:17.829Z,1158.83
2016-09-29T07:54:17.860Z,1158.69
2016-09-29T07:55:17.843Z,1158.44
2016-09-29T07:56:17.832Z,1158.36
2016-09-29T07:57:17.833Z,1158.22
2016-09-29T07:58:17.839Z,1157.94
2016-09-29T07:59:17.835Z,1157.59
2016-09-29T08:00:17.852Z,1157.24
2016-09-29T08:01:17.834Z,1156.85
2016-09-29T08:02:17.827Z,1156.55
2016-09-29T08:03:17.829Z,1156.4
2016-09-29T08:04:17.840Z,1156.18
2016-09-29T08:05:17.866Z,1156.14
2016-09-29T08:06:17.837Z,1156.21
2016-09-29T08:07:17.850Z,1156.32
2016-09-29T08:08:17.852Z,1156.4
2016-09-29T08:09:17.865Z,1156.54
2016-09-29T08:10:17.866Z,1156.73
2016-09-29T08:11:17.841Z,1156.8
2016-09-29T08:12:17.871Z,1157.04
2016-09-29T08:13:17.856Z,1157.22
2016-09-29T08:14:17.857Z,1157.26
2016-09-29T08:15:17.840Z,1157.31
2016-09-29T08:16:17.861Z,1157.18
2016-09-29T08:17:17.852Z,1157.04
2016-09-29T08:18:17.852Z,1156.93
2016-09-29T08:19:17.850Z,1156.67
2016-09-29T08:20:17.862Z,1156.53
2016-09-29T08:21:17.850Z,1156.34
2016-09-29T08:22:17.872Z,1156.24
2016-09-29T08:23:17.878Z,1155.91
2016-09-29T08:24:17.859Z,1155.76
2016-09-29T08:25:17.859Z,1155.52
2016-09-29T08:26:17.869Z,1155.24
2016-09-29T08:27:17.869Z,1154.85
2016-09-29T08:28:17.868Z,1154.2
2016-09-29T08:29:17.914Z,1153.43
2016-09-29T08:30:17.875Z,1152.7
2016-09-29T08:31:17.869Z,1151.82
2016-09-29T08:32:17.856Z,1150.98
2016-09-29T08:33:17.881Z,1149.89
2016-09-29T08:34:17.873Z,1149
2016-09-29T08:35:17.875Z,1148.41
2016-09-29T08:36:17.872Z,1147.91
2016-09-29T08:37:17.879Z,1147.66
2016-09-29T08:38:17.887Z,1147.43
2016-09-29T08:39:17.890Z,1147.16
2016-09-29T08:40:17.880Z,1147.06
2016-09-29T08:41:17.892Z,1146.97
2016-09-29T08:42:17.885Z,1146.67
2016-09-29T08:43:17.876Z,1146.42
2016-09-29T08:44:17.886Z,1145.87
2016-09-29T08:45:17.886Z,1145.06
2016-09-29T08:46:17.921Z,1143.86
2016-09-29T08:47:17.892Z,1142.46
2016-09-29T08:48:17.886Z,1141.16
2016-09-29T08:49:17.883Z,1139.22
2016-09-29T08:50:17.890Z,1137.25
2016-09-29T08:51:17.889Z,1135.16
2016-09-29T08:52:17.900Z,1133.02
2016-09-29T08:53:17.879Z,1131.11
2016-09-29T08:54:17.883Z,1129.21
2016-09-29T08:55:17.896Z,1127.19
2016-09-29T08:56:17.902Z,1125.53
2016-09-29T08:57:17.906Z,1123.99
2016-09-29T08:58:17.905Z,1122.69
2016-09-29T08:59:17.933Z,1120.64
2016-09-29T09:00:17.905Z,1120.53
2016-09-29T09:01:17.896Z,1120.29
2016-09-29T09:02:17.911Z,1119.59
2016-09-29T09:03:17.906Z,1118.08
2016-09-29T09:04:17.912Z,1115.65
2016-09-29T09:05:17.919Z,1112.45
2016-09-29T09:06:17.900Z,1109.99
2016-09-29T09:07:17.921Z,1107.86
2016-09-29T09:08:17.914Z,1105.4
2016-09-29T09:09:17.903Z,1103.26
2016-09-29T09:10:17.912Z,1101.54
2016-09-29T09:11:17.905Z,1100.13
2016-09-29T09:12:17.914Z,1099.93
2016-09-29T09:13:17.906Z,1100.61
2016-09-29T09:14:17.909Z,1101.86
2016-09-29T09:15:17.913Z,1103.75
2016-09-29T09:16:17.913Z,1106.92
2016-09-29T09:17:17.915Z,1110.05
2016-09-29T09:18:17.976Z,1112.89
2016-09-29T09:19:17.932Z,1115.08
2016-09-29T09:20:17.915Z,1117.2
2016-09-29T09:21:17.934Z,1119.3
2016-09-29T09:22:17.922Z,1121.37
2016-09-29T09:23:17.925Z,1122.9
2016-09-29T09:24:17.919Z,1123.91
2016-09-29T09:25:17.935Z,1124.78
2016-09-29T09:26:17.928Z,1125.24
2016-09-29T09:27:17.942Z,1125.89
2016-09-29T09:28:17.935Z,1126.77
2016-09-29T09:29:17.931Z,1127.57
2016-09-29T09:30:17.965Z,1128.34
2016-09-29T09:31:17.929Z,1129.23
2016-09-29T09:32:17.930Z,1130.43
2016-09-29T09:33:17.991Z,1131.4
2016-09-29T09:34:17.924Z,1131.15
2016-09-29T09:35:17.935Z,1130.49
2016-09-29T09:36:17.920Z,1130.37
2016-09-29T09:37:17.943Z,1130.31
2016-09-29T09:38:17.962Z,1130.61
2016-09-29T09:39:17.944Z,1131.21
2016-09-29T09:40:17.950Z,1131.4
2016-09-29T09:41:17.935Z,1131.07
2016-09-29T09:42:17.954Z,1130.56
2016-09-29T09:43:17.947Z,1129.59
2016-09-29T09:44:17.962Z,1127.95
2016-09-29T09:45:17.969Z,1126.99
2016-09-29T09:46:17.939Z,1126.56
2016-09-29T09:47:17.946Z,1126.37
2016-09-29T09:48:17.953Z,1126.3
2016-09-29T09:49:17.943Z,1126.73
2016-09-29T09:50:17.950Z,1126.18
2016-09-29T09:51:17.963Z,1125.88
2016-09-29T09:52:17.950Z,1125.65
2016-09-29T09:53:17.981Z,1125.27
2016-09-29T09:54:17.956Z,1126.09
2016-09-29T09:55:17.952Z,1126.81
2016-09-29T09:56:17.951Z,1127.99
2016-09-29T09:57:17.963Z,1129.01
2016-09-29T09:58:17.974Z,1129.86
2016-09-29T09:59:17.963Z,1130.79
2016-09-29T10:00:17.960Z,1131.32
2016-09-29T10:01:18.017Z,1132.04
2016-09-29T10:02:17.981Z,1132.31
2016-09-29T10:03:17.964Z,1132.71
2016-09-29T10:04:17.952Z,1132.5
2016-09-29T10:05:17.950Z,1132.31
2016-09-29T10:06:17.958Z,1131.76
2016-09-29T10:07:17.958Z,1131.19
2016-09-29T10:08:17.967Z,1130.41
2016-09-29T10:09:17.968Z,1128.62
2016-09-29T10:10:17.973Z,1127.18
2016-09-29T10:11:17.960Z,1124.87
2016-09-29T10:12:17.966Z,1121.71
2016-09-29T10:13:17.988Z,1119.6
2016-09-29T10:14:17.980Z,1118.41
2016-09-29T10:15:17.986Z,1117.35
2016-09-29T10:16:17.990Z,1115.69
2016-09-29T10:17:17.993Z,1114.33
2016-09-29T10:18:18.003Z,1113.38
2016-09-29T10:19:17.985Z,1113.18
2016-09-29T10:20:18.004Z,1112.86
2016-09-29T10:21:17.990Z,1111.83
2016-09-29T10:22:17.986Z,1110.54
2016-09-29T10:23:17.993Z,1108.88
2016-09-29T10:24:17.983Z,1108.35
2016-09-29T10:25:17.986Z,1109.2
2016-09-29T10:26:17.993Z,1109.63
2016-09-29T10:27:18.000Z,1110.5
2016-09-29T10:28:17.993Z,1111.49
2016-09-29T10:29:18.000Z,1112.14
2016-09-29T10:30:18.063Z,1112.48
2016-09-29T10:31:18.014Z,1112.3
2016-09-29T10:32:17.989Z,1112.11
2016-09-29T10:33:17.996Z,1110.75
2016-09-29T10:34:18.001Z,1109.2
2016-09-29T10:35:18.008Z,1107.93
2016-09-29T10:36:17.998Z,1106.35
2016-09-29T10:37:18.005Z,1105.39
2016-09-29T10:38:18.015Z,1104.74
2016-09-29T10:39:17.988Z,1104.05
2016-09-29T10:40:17.995Z,1103.24
2016-09-29T10:41:18.003Z,1102.26
2016-09-29T10:42:17.993Z,1101.7
2016-09-29T10:43:17.992Z,1100.78
2016-09-29T10:44:18.001Z,1100.33
2016-09-29T10:45:17.999Z,1100.17
2016-09-29T10:46:17.990Z,1099.2
2016-09-29T10:47:17.998Z,1098.2
2016-09-29T10:48:18.033Z,1097.47
2016-09-29T10:49:17.999Z,1097.43
2016-09-29T10:50:18.009Z,1097.91
2016-09-29T10:51:18.011Z,1098.73
2016-09-29T10:52:18.005Z,1099.95
2016-09-29T10:53:18.015Z,1101.08
2016-09-29T10:54:18.007Z,1102.23
2016-09-29T10:55:18.027Z,1103.82
2016-09-29T10:56:18.023Z,1104.79
2016-09-29T10:57:18.021Z,1105.65
2016-09-29T10:58:18.030Z,1105.84
2016-09-29T10:59:18.018Z,1105.45
2016-09-29T11:00:18.020Z,1105.71
2016-09-29T11:01:18.040Z,1105.19
2016-09-29T11:02:18.025Z,1105.39
2016-09-29T11:03:18.028Z,1106.88
2016-09-29T11:04:18.026Z,1107.76
2016-09-29T11:05:18.025Z,1108.66
2016-09-29T11:06:18.023Z,1109.76
2016-09-29T11:07:18.138Z,1110.52
2016-09-29T11:08:18.039Z,1111.01
2016-09-29T11:09:18.084Z,1111.7
2016-09-29T11:10:18.055Z,1112
2016-09-29T11:11:18.027Z,1111.29
2016-09-29T11:12:18.106Z,1110.62
2016-09-29T11:13:18.039Z,1111.05
2016-09-29T11:14:18.020Z,1112.35
2016-09-29T11:15:18.035Z,1113.87
2016-09-29T11:16:18.061Z,1114.78
2016-09-29T11:17:18.070Z,1115.27
2016-09-29T11:18:18.045Z,1114.91
2016-09-29T11:19:18.036Z,1114.98
2016-09-29T11:20:18.039Z,1114.91
2016-09-29T11:21:18.038Z,1113.79
2016-09-29T11:22:18.043Z,1112.54
2016-09-29T11:23:18.062Z,1112.03
2016-09-29T11:24:18.055Z,1111.96
2016-09-29T11:25:18.035Z,1111.79
2016-09-29T11:26:18.033Z,1112.22
2016-09-29T11:27:18.036Z,1112.42
2016-09-29T11:28:18.055Z,1111.6
2016-09-29T11:29:18.049Z,1111.53
2016-09-29T11:30:18.041Z,1111
2016-09-29T11:31:18.055Z,1108.53
2016-09-29T11:32:18.058Z,1105.58
2016-09-29T11:33:18.272Z,1104.61
2016-09-29T11:34:18.055Z,1104.91
2016-09-29T11:35:18.077Z,1104.66
2016-09-29T11:36:18.099Z,1103.57
2016-09-29T11:37:18.064Z,1103.26
2016-09-29T11:38:18.047Z,1103.72
2016-09-29T11:39:18.070Z,1104.32
2016-09-29T11:40:18.059Z,1102.57
2016-09-29T11:41:18.055Z,1100.43
2016-09-29T11:42:18.074Z,1099.67
2016-09-29T11:43:18.049Z,1098.55
2016-09-29T11:44:18.059Z,1097.65
2016-09-29T11:45:18.063Z,1097.86
2016-09-29T11:46:18.070Z,1097.92
2016-09-29T11:47:18.148Z,1097.58
2016-09-29T11:48:18.068Z,1097.5
2016-09-29T11:49:18.061Z,1095.54
2016-09-29T11:50:18.065Z,1092.45
2016-09-29T11:51:18.078Z,1087.93
2016-09-29T11:52:18.096Z,1081.98
2016-09-29T11:53:18.067Z,1075.64
2016-09-29T11:54:18.071Z,1070.75
2016-09-29T11:55:18.078Z,1068.59
2016-09-29T11:56:18.080Z,1068.1
2016-09-29T11:57:18.075Z,1066.5
2016-09-29T11:58:18.092Z,1066.67
2016-09-29T11:59:18.079Z,1068.37
2016-09-29T12:00:18.574Z,1067.51
2016-09-29T12:01:18.176Z,1065.76
2016-09-29T12:02:18.077Z,1064.3
2016-09-29T12:03:18.092Z,1064.18
2016-09-29T12:04:18.071Z,1066.25
2016-09-29T12:05:18.240Z,1067.57
2016-09-29T12:06:18.294Z,1068.24
2016-09-29T12:07:18.086Z,1069.98
2016-09-29T12:08:18.147Z,1070.8